createdAt,value
2023-03-17T00:01:19.132Z,11.90
2023-03-17T00:03:47.999Z,11.61
2023-03-17T00:06:25.169Z,12.01
2023-03-17T00:08:52.969Z,11.77
2023-03-17T00:11:21.363Z,11.87
2023-03-17T00:13:49.504Z,11.86
2023-03-17T00:16:19.321Z,11.91
2023-03-17T00:18:48.583Z,11.52
2023-03-17T00:21:18.053Z,11.45
2023-03-17T00:23:49.044Z,11.27
2023-03-17T00:26:16.653Z,11.12
2023-03-17T00:28:45.033Z,11.25
2023-03-17T00:31:17.915Z,11.21
2023-03-17T00:33:47.523Z,11.16
2023-03-17T00:36:20.152Z,11.16
2023-03-17T00:38:48.023Z,11.17
2023-03-17T00:41:16.245Z,11.54
2023-03-17T00:43:45.777Z,11.34
2023-03-17T00:46:14.956Z,10.97
2023-03-17T00:48:43.740Z,10.85
2023-03-17T00:51:13.230Z,10.87
2023-03-17T00:53:41.631Z,11.07
2023-03-17T00:56:17.308Z,10.94
2023-03-17T00:58:46.260Z,11.22
2023-03-17T01:01:14.183Z,10.98
2023-03-17T01:03:42.231Z,10.84
2023-03-17T01:06:12.424Z,10.99
2023-03-17T01:08:41.564Z,10.78
2023-03-17T01:11:19.278Z,10.97
2023-03-17T01:13:48.954Z,10.82
2023-03-17T01:16:17.265Z,10.80
2023-03-17T01:18:45.914Z,10.60
2023-03-17T01:21:14.191Z,10.66
2023-03-17T01:23:42.541Z,10.64
2023-03-17T01:26:10.228Z,10.67
2023-03-17T01:28:38.380Z,10.72
2023-03-17T01:31:06.089Z,10.90
2023-03-17T01:33:34.264Z,11.01
2023-03-17T01:36:02.223Z,10.64
2023-03-17T01:38:30.265Z,10.36
2023-03-17T01:40:57.849Z,10.66
2023-03-17T01:43:28.322Z,10.68
2023-03-17T01:46:15.060Z,10.81
2023-03-17T01:48:44.783Z,10.79
2023-03-17T01:51:18.241Z,10.60
2023-03-17T01:53:48.352Z,10.55
2023-03-17T01:56:17.161Z,10.74
2023-03-17T01:58:47.192Z,10.58
2023-03-17T02:01:15.432Z,10.49
2023-03-17T02:03:45.321Z,10.39
2023-03-17T02:06:13.199Z,10.58
2023-03-17T02:08:41.130Z,10.39
2023-03-17T02:11:08.851Z,10.53
2023-03-17T02:13:38.892Z,10.46
2023-03-17T02:16:07.270Z,10.37
2023-03-17T02:18:35.233Z,10.26
2023-03-17T02:21:11.944Z,10.20
2023-03-17T02:23:43.647Z,10.26
2023-03-17T02:26:12.073Z,10.33
2023-03-17T02:28:40.701Z,10.05
2023-03-17T02:31:09.878Z,10.39
2023-03-17T02:33:38.190Z,10.47
2023-03-17T02:36:05.877Z,10.15
2023-03-17T02:38:33.763Z,10.21
2023-03-17T02:41:01.404Z,10.04
2023-03-17T02:43:29.674Z,9.97
2023-03-17T02:45:57.318Z,9.90
2023-03-17T02:48:25.255Z,10.15
2023-03-17T02:50:53.115Z,10.02
2023-03-17T02:53:21.006Z,10.19
2023-03-17T02:55:48.690Z,9.98
2023-03-17T02:58:16.828Z,9.90
2023-03-17T03:00:44.686Z,9.89
2023-03-17T03:03:12.776Z,10.07
2023-03-17T03:05:40.346Z,10.00
2023-03-17T03:08:08.779Z,10.04
2023-03-17T03:10:36.646Z,9.99
2023-03-17T03:13:04.846Z,9.95
2023-03-17T03:15:32.502Z,9.84
2023-03-17T03:18:00.456Z,9.92
2023-03-17T03:20:28.429Z,9.97
2023-03-17T03:22:56.867Z,9.87
2023-03-17T03:25:24.484Z,9.83
2023-03-17T03:27:52.409Z,9.99
2023-03-17T03:30:20.633Z,9.83
2023-03-17T03:32:48.723Z,10.14
2023-03-17T03:35:17.021Z,9.78
2023-03-17T03:37:44.879Z,9.66
2023-03-17T03:40:12.837Z,9.74
2023-03-17T03:42:41.138Z,9.60
2023-03-17T03:45:09.284Z,9.52
2023-03-17T03:47:37.253Z,9.68
2023-03-17T03:50:05.197Z,9.60
2023-03-17T03:52:33.305Z,9.79
2023-03-17T03:55:01.208Z,9.57
2023-03-17T03:57:29.055Z,9.52
2023-03-17T03:59:56.677Z,9.47
2023-03-17T04:02:24.951Z,9.52
2023-03-17T04:04:53.005Z,9.71
2023-03-17T04:07:21.651Z,9.63
2023-03-17T04:09:49.526Z,9.68
2023-03-17T04:12:17.650Z,9.39
2023-03-17T04:14:45.304Z,9.71
2023-03-17T04:17:13.363Z,9.58
2023-03-17T04:19:41.026Z,9.53
2023-03-17T04:22:12.178Z,9.66
2023-03-17T04:24:39.848Z,9.62
2023-03-17T04:27:08.230Z,9.49
2023-03-17T04:29:36.622Z,9.53
2023-03-17T04:32:04.930Z,9.31
2023-03-17T04:34:32.805Z,9.13
2023-03-17T04:37:00.840Z,9.25
2023-03-17T04:39:28.440Z,9.39
2023-03-17T04:41:56.330Z,9.17
2023-03-17T04:44:23.890Z,9.25
2023-03-17T04:46:51.840Z,9.29
2023-03-17T04:49:19.504Z,9.57
2023-03-17T04:51:47.392Z,9.46
2023-03-17T04:54:14.933Z,9.33
2023-03-17T04:56:42.859Z,9.25
2023-03-17T04:59:10.592Z,9.19
2023-03-17T05:01:39.295Z,9.26
2023-03-17T05:04:09.104Z,9.38
2023-03-17T05:06:38.229Z,9.50
2023-03-17T05:09:05.817Z,9.40
2023-03-17T05:11:34.151Z,9.31
2023-03-17T05:14:01.780Z,9.28
2023-03-17T05:16:29.764Z,9.30
2023-03-17T05:18:57.459Z,9.42
2023-03-17T05:21:25.359Z,9.51
2023-03-17T05:23:54.976Z,9.38
2023-03-17T05:26:23.252Z,9.27
2023-03-17T05:28:50.851Z,9.50
2023-03-17T05:31:19.405Z,9.63
2023-03-17T05:33:49.484Z,9.64
2023-03-17T05:36:17.651Z,9.52
2023-03-17T05:38:45.746Z,9.69
2023-03-17T05:41:13.805Z,9.68
2023-03-17T05:43:41.489Z,9.41
2023-03-17T05:46:09.518Z,9.31
2023-03-17T05:48:37.211Z,9.53
2023-03-17T05:51:05.440Z,9.52
2023-03-17T05:53:33.096Z,9.55
2023-03-17T05:56:01.005Z,9.87
2023-03-17T05:58:28.672Z,9.81
2023-03-17T06:00:57.197Z,9.99
2023-03-17T06:03:24.921Z,10.04
2023-03-17T06:05:53.385Z,10.18
2023-03-17T06:08:21.535Z,10.10
2023-03-17T06:10:49.584Z,10.23
2023-03-17T06:13:17.143Z,10.15
2023-03-17T06:15:46.869Z,10.24
2023-03-17T06:18:14.383Z,10.17
2023-03-17T06:20:42.271Z,10.65
2023-03-17T06:23:09.914Z,10.85
2023-03-17T06:25:37.793Z,10.72
2023-03-17T06:28:05.790Z,10.70
2023-03-17T06:30:34.715Z,10.67
2023-03-17T06:33:02.650Z,10.57
2023-03-17T06:35:31.064Z,10.89
2023-03-17T06:37:59.152Z,11.01
2023-03-17T06:40:27.168Z,10.74
2023-03-17T06:42:54.922Z,10.78
2023-03-17T06:45:22.860Z,10.68
2023-03-17T06:47:50.968Z,10.90
2023-03-17T06:50:19.235Z,11.27
2023-03-17T06:52:47.271Z,11.18
2023-03-17T06:55:16.132Z,11.64
2023-03-17T06:57:43.892Z,11.85
2023-03-17T07:00:14.386Z,11.63
2023-03-17T07:02:42.377Z,12.07
2023-03-17T07:05:10.426Z,11.81
2023-03-17T07:07:39.159Z,11.92
2023-03-17T07:10:07.499Z,12.29
2023-03-17T07:12:35.159Z,12.37
2023-03-17T07:15:03.730Z,12.45
2023-03-17T07:17:31.260Z,12.52
2023-03-17T07:19:59.235Z,12.49
2023-03-17T07:22:27.233Z,12.67
2023-03-17T07:24:55.256Z,12.91
2023-03-17T07:27:25.557Z,12.96
2023-03-17T07:29:53.784Z,13.09
2023-03-17T07:32:21.435Z,13.30
2023-03-17T07:34:49.533Z,13.55
2023-03-17T07:37:17.771Z,14.01
2023-03-17T07:39:47.641Z,14.13
2023-03-17T07:42:16.000Z,14.35
2023-03-17T07:44:44.563Z,14.60
2023-03-17T07:47:12.225Z,14.62
2023-03-17T07:49:42.235Z,14.79
2023-03-17T07:52:11.000Z,14.91
2023-03-17T07:54:41.546Z,15.27
2023-03-17T07:57:11.045Z,15.30
2023-03-17T07:59:41.821Z,15.58
2023-03-17T08:02:14.350Z,15.77
2023-03-17T08:04:42.852Z,15.83
2023-03-17T08:07:10.741Z,15.96
2023-03-17T08:09:39.278Z,16.01
2023-03-17T08:12:07.130Z,15.40
2023-03-17T08:14:35.028Z,15.51
2023-03-17T08:17:03.045Z,15.90
2023-03-17T08:19:31.320Z,15.99
2023-03-17T08:21:59.109Z,16.17
2023-03-17T08:24:27.241Z,15.69
2023-03-17T08:26:54.881Z,15.40
2023-03-17T08:29:22.838Z,15.82
2023-03-17T08:31:50.535Z,16.31
2023-03-17T08:34:18.464Z,16.53
2023-03-17T08:36:46.209Z,15.90
2023-03-17T08:39:14.176Z,16.39
2023-03-17T08:41:42.290Z,17.13
2023-03-17T08:44:10.420Z,16.12
2023-03-17T08:46:38.071Z,16.38
2023-03-17T08:49:05.942Z,16.24
2023-03-17T08:51:35.028Z,17.05
2023-03-17T08:54:04.195Z,16.40
2023-03-17T08:56:31.715Z,17.20
2023-03-17T08:58:59.631Z,16.84
2023-03-17T09:01:27.696Z,16.77
2023-03-17T09:03:56.174Z,16.76
2023-03-17T09:06:24.343Z,15.80
2023-03-17T09:08:55.724Z,16.49
2023-03-17T09:11:25.270Z,16.32
2023-03-17T09:13:53.317Z,16.41
2023-03-17T09:16:21.101Z,16.17
2023-03-17T09:18:49.123Z,15.51
2023-03-17T09:21:17.466Z,16.04
2023-03-17T09:23:45.482Z,15.22
2023-03-17T09:26:13.045Z,15.51
2023-03-17T09:28:41.035Z,16.12
2023-03-17T09:31:12.486Z,16.84
2023-03-17T09:33:40.983Z,16.96
2023-03-17T09:36:09.752Z,16.20
2023-03-17T09:38:38.696Z,16.47
2023-03-17T09:41:23.753Z,16.09
2023-03-17T09:43:52.801Z,15.76
2023-03-17T09:46:32.529Z,15.88
2023-03-17T09:49:07.812Z,16.89
2023-03-17T09:51:36.063Z,16.22
2023-03-17T09:54:11.640Z,16.65
2023-03-17T09:56:43.511Z,16.80
2023-03-17T09:59:17.633Z,16.47
2023-03-17T10:01:45.255Z,16.53
2023-03-17T10:04:13.469Z,17.36
2023-03-17T10:06:47.669Z,17.21
2023-03-17T10:09:27.339Z,17.23
2023-03-17T10:12:02.550Z,18.34
2023-03-17T10:14:39.382Z,18.87
2023-03-17T10:17:26.277Z,19.11
2023-03-17T10:20:04.939Z,19.60
2023-03-17T10:22:41.952Z,19.65
2023-03-17T10:25:15.966Z,20.26
2023-03-17T10:27:45.533Z,19.00
2023-03-17T10:30:18.173Z,17.67
2023-03-17T10:32:46.945Z,18.76
2023-03-17T10:35:16.384Z,19.18
2023-03-17T10:37:44.382Z,18.79
2023-03-17T10:40:23.630Z,20.04
2023-03-17T10:43:10.532Z,19.09
2023-03-17T10:45:44.081Z,19.98
2023-03-17T10:48:17.622Z,18.22
2023-03-17T10:50:48.652Z,18.09
2023-03-17T10:53:28.634Z,17.54
2023-03-17T10:55:58.310Z,18.72
2023-03-17T10:58:28.690Z,18.46
2023-03-17T11:01:06.018Z,19.04
2023-03-17T11:03:36.248Z,19.00
2023-03-17T11:06:06.370Z,19.85
2023-03-17T11:08:35.802Z,18.41
2023-03-17T11:11:08.624Z,18.65
2023-03-17T11:13:36.765Z,18.45
2023-03-17T11:16:05.336Z,19.07
2023-03-17T11:18:36.124Z,18.55
2023-03-17T11:21:24.458Z,20.04
2023-03-17T11:24:09.539Z,18.83
2023-03-17T11:26:43.237Z,18.99
2023-03-17T11:29:36.876Z,20.09
2023-03-17T11:32:13.834Z,20.18
2023-03-17T11:34:49.242Z,18.36
2023-03-17T11:37:55.774Z,19.08
2023-03-17T11:40:27.418Z,18.70
2023-03-17T11:43:08.245Z,18.67
2023-03-17T11:45:44.292Z,19.14
2023-03-17T11:48:18.017Z,20.42
2023-03-17T11:51:15.553Z,22.00
2023-03-17T11:54:01.869Z,22.10
2023-03-17T11:56:32.244Z,22.23
2023-03-17T11:59:02.797Z,21.93
2023-03-17T12:01:37.342Z,22.10
2023-03-17T12:04:14.104Z,21.37
2023-03-17T12:06:51.812Z,20.92
2023-03-17T12:09:29.430Z,20.30
2023-03-17T12:11:57.301Z,20.23
2023-03-17T12:14:34.279Z,20.36
2023-03-17T12:17:17.164Z,20.72
2023-03-17T12:20:07.057Z,22.34
2023-03-17T12:22:47.329Z,20.00
2023-03-17T12:25:19.698Z,21.10
2023-03-17T12:27:54.927Z,19.74
2023-03-17T12:30:29.443Z,20.27
2023-03-17T12:33:00.938Z,20.48
2023-03-17T12:35:32.409Z,21.77
2023-03-17T12:38:03.365Z,22.14
2023-03-17T12:40:34.965Z,20.91
2023-03-17T12:43:28.733Z,21.27
2023-03-17T12:46:15.896Z,22.01
2023-03-17T12:48:49.912Z,21.85
2023-03-17T12:51:31.355Z,21.84
2023-03-17T12:54:00.553Z,21.22
2023-03-17T12:56:32.284Z,19.66
2023-03-17T12:59:02.373Z,20.79
2023-03-17T13:01:48.968Z,21.22
2023-03-17T13:04:27.055Z,22.62
2023-03-17T13:07:14.435Z,23.14
2023-03-17T13:09:44.564Z,23.32
2023-03-17T13:12:31.621Z,22.84
2023-03-17T13:15:00.125Z,22.57
2023-03-17T13:17:28.842Z,21.88
2023-03-17T13:19:57.659Z,22.26
2023-03-17T13:22:34.619Z,21.75
2023-03-17T13:25:21.964Z,21.57
2023-03-17T13:27:50.294Z,21.07
2023-03-17T13:30:25.584Z,20.62
2023-03-17T13:32:57.213Z,21.52
2023-03-17T13:35:38.073Z,21.53
2023-03-17T13:38:13.969Z,22.62
2023-03-17T13:40:49.128Z,22.75
2023-03-17T13:43:30.600Z,22.23
2023-03-17T13:46:18.164Z,21.88
2023-03-17T13:48:46.430Z,22.59
2023-03-17T13:51:22.270Z,23.24
2023-03-17T13:53:58.337Z,22.24
2023-03-17T13:56:38.208Z,22.48
2023-03-17T13:59:07.755Z,22.49
2023-03-17T14:01:38.332Z,22.10
2023-03-17T14:04:12.552Z,21.86
2023-03-17T14:06:40.428Z,21.13
2023-03-17T14:09:21.627Z,21.71
2023-03-17T14:11:51.199Z,22.39
2023-03-17T14:14:32.654Z,22.52
2023-03-17T14:17:01.147Z,21.72
2023-03-17T14:19:29.876Z,22.15
2023-03-17T14:22:17.669Z,23.37
2023-03-17T14:24:45.619Z,23.82
2023-03-17T14:27:15.518Z,21.95
2023-03-17T14:29:43.555Z,20.58
2023-03-17T14:32:16.166Z,20.69
2023-03-17T14:34:53.287Z,20.67
2023-03-17T14:37:20.878Z,20.77
2023-03-17T14:39:50.217Z,22.34
2023-03-17T14:42:19.930Z,21.22
2023-03-17T14:44:47.838Z,21.12
2023-03-17T14:47:24.480Z,21.81
2023-03-17T14:49:55.578Z,23.58
2023-03-17T14:52:28.409Z,24.77
2023-03-17T14:54:58.702Z,24.46
2023-03-17T14:57:29.182Z,23.09
2023-03-17T15:00:22.917Z,23.72
2023-03-17T15:02:55.261Z,25.94
2023-03-17T15:05:42.281Z,24.40
2023-03-17T15:08:29.603Z,23.45
2023-03-17T15:10:59.240Z,22.62
2023-03-17T15:13:27.478Z,22.57
2023-03-17T15:15:56.269Z,22.67
2023-03-17T15:18:25.300Z,22.82
2023-03-17T15:20:55.102Z,22.84
2023-03-17T15:23:25.516Z,22.62
2023-03-17T15:25:57.147Z,22.33
2023-03-17T15:28:25.851Z,21.37
2023-03-17T15:30:55.382Z,20.58
2023-03-17T15:33:29.376Z,20.55
2023-03-17T15:36:00.221Z,19.90
2023-03-17T15:38:28.323Z,19.70
2023-03-17T15:40:56.244Z,19.55
2023-03-17T15:43:23.872Z,19.16
2023-03-17T15:45:57.347Z,19.69
2023-03-17T15:48:30.060Z,20.38
2023-03-17T15:51:00.208Z,20.12
2023-03-17T15:53:28.099Z,19.66
2023-03-17T15:55:56.561Z,18.55
2023-03-17T15:58:24.130Z,18.25
2023-03-17T16:00:53.889Z,18.79
2023-03-17T16:03:29.305Z,18.82
2023-03-17T16:05:59.017Z,18.65
2023-03-17T16:08:26.735Z,19.59
2023-03-17T16:10:54.746Z,18.86
2023-03-17T16:13:22.637Z,18.83
2023-03-17T16:15:54.212Z,18.96
2023-03-17T16:18:26.024Z,18.77
2023-03-17T16:20:54.126Z,18.33
2023-03-17T16:23:23.333Z,18.58
2023-03-17T16:25:52.638Z,18.23
2023-03-17T16:28:22.907Z,17.88
2023-03-17T16:30:51.491Z,18.03
2023-03-17T16:33:21.125Z,18.38
2023-03-17T16:35:49.785Z,18.55
2023-03-17T16:38:18.276Z,18.20
2023-03-17T16:40:47.730Z,18.71
2023-03-17T16:43:25.051Z,17.90
2023-03-17T16:46:00.032Z,17.75
2023-03-17T16:48:27.617Z,17.61
2023-03-17T16:50:55.997Z,18.20
2023-03-17T16:53:23.760Z,17.95
2023-03-17T16:55:53.397Z,17.73
2023-03-17T16:58:22.948Z,17.62
2023-03-17T17:00:52.667Z,17.84
2023-03-17T17:03:20.510Z,18.01
2023-03-17T17:05:48.824Z,17.76
2023-03-17T17:08:16.511Z,17.84
2023-03-17T17:10:44.682Z,17.48
2023-03-17T17:13:12.587Z,17.58
2023-03-17T17:15:41.450Z,17.56
2023-03-17T17:18:14.944Z,17.45
2023-03-17T17:20:43.661Z,17.19
2023-03-17T17:23:13.000Z,17.17
2023-03-17T17:25:41.534Z,17.26
2023-03-17T17:28:09.422Z,17.16
2023-03-17T17:30:37.564Z,17.20
2023-03-17T17:33:05.244Z,17.07
2023-03-17T17:35:33.693Z,17.13
2023-03-17T17:38:02.567Z,17.08
2023-03-17T17:40:31.100Z,17.25
2023-03-17T17:42:59.041Z,17.06
2023-03-17T17:45:27.039Z,17.10
2023-03-17T17:47:54.612Z,17.05
2023-03-17T17:50:27.134Z,17.18
2023-03-17T17:52:55.200Z,17.17
2023-03-17T17:55:23.163Z,17.18
2023-03-17T17:57:52.602Z,17.24
2023-03-17T18:00:20.769Z,17.26
2023-03-17T18:02:48.568Z,17.19
2023-03-17T18:05:16.708Z,17.33
2023-03-17T18:07:44.373Z,17.05
2023-03-17T18:10:17.781Z,17.04
2023-03-17T18:12:45.921Z,17.31
2023-03-17T18:15:14.024Z,17.20
2023-03-17T18:17:43.412Z,17.08
2023-03-17T18:20:16.438Z,17.02
2023-03-17T18:22:44.113Z,16.86
2023-03-17T18:25:13.197Z,16.69
2023-03-17T18:27:41.490Z,16.64
2023-03-17T18:30:11.208Z,16.68
2023-03-17T18:32:40.325Z,16.53
2023-03-17T18:35:09.601Z,16.54
2023-03-17T18:37:37.433Z,16.56
2023-03-17T18:40:14.279Z,16.59
2023-03-17T18:42:42.958Z,16.56
2023-03-17T18:45:11.775Z,16.46
2023-03-17T18:47:41.192Z,16.51
2023-03-17T18:50:10.824Z,16.60
2023-03-17T18:52:39.891Z,16.43
2023-03-17T18:55:08.964Z,16.11
2023-03-17T18:57:36.927Z,16.12
2023-03-17T19:00:05.596Z,16.29
2023-03-17T19:02:33.531Z,16.14
2023-03-17T19:05:01.781Z,16.05
2023-03-17T19:07:29.625Z,16.01
2023-03-17T19:09:58.059Z,16.01
2023-03-17T19:12:26.958Z,15.96
2023-03-17T19:14:55.238Z,15.91
2023-03-17T19:17:22.998Z,16.02
2023-03-17T19:19:52.373Z,15.84
2023-03-17T19:22:20.082Z,15.78
2023-03-17T19:24:50.297Z,15.64
2023-03-17T19:27:17.968Z,15.55
2023-03-17T19:29:46.265Z,15.51
2023-03-17T19:32:14.131Z,15.51
2023-03-17T19:34:42.346Z,15.50
2023-03-17T19:37:10.024Z,15.36
2023-03-17T19:39:38.009Z,15.33
2023-03-17T19:42:05.981Z,15.21
2023-03-17T19:44:33.934Z,15.08
2023-03-17T19:47:05.255Z,15.00
2023-03-17T19:49:34.781Z,15.17
2023-03-17T19:52:02.374Z,15.09
2023-03-17T19:54:31.077Z,15.13
2023-03-17T19:56:58.750Z,15.17
2023-03-17T19:59:26.608Z,14.81
2023-03-17T20:01:54.284Z,15.06
2023-03-17T20:04:23.253Z,14.93
2023-03-17T20:06:55.668Z,14.74
2023-03-17T20:09:25.598Z,14.94
2023-03-17T20:11:53.827Z,14.70
2023-03-17T20:14:21.781Z,14.83
2023-03-17T20:16:49.717Z,14.82
2023-03-17T20:19:18.007Z,14.55
2023-03-17T20:21:45.680Z,14.46
2023-03-17T20:24:14.982Z,14.69
2023-03-17T20:26:43.727Z,14.73
2023-03-17T20:29:12.926Z,14.58
2023-03-17T20:31:41.556Z,14.68
2023-03-17T20:34:10.369Z,14.74
2023-03-17T20:36:42.529Z,14.63
2023-03-17T20:39:15.196Z,14.50
2023-03-17T20:41:42.822Z,14.54
2023-03-17T20:44:10.782Z,14.60
2023-03-17T20:46:39.416Z,14.46
2023-03-17T20:49:08.111Z,14.57
2023-03-17T20:51:35.897Z,14.47
2023-03-17T20:54:04.457Z,14.33
2023-03-17T20:56:33.965Z,14.09
2023-03-17T20:59:05.304Z,14.07
2023-03-17T21:01:34.145Z,14.23
2023-03-17T21:04:03.033Z,14.17
2023-03-17T21:06:30.599Z,14.00
2023-03-17T21:08:58.877Z,14.14
2023-03-17T21:11:26.989Z,14.21
2023-03-17T21:13:55.679Z,14.14
2023-03-17T21:16:24.952Z,14.01
2023-03-17T21:18:52.922Z,14.05
2023-03-17T21:21:21.915Z,14.11
2023-03-17T21:23:49.787Z,14.19
2023-03-17T21:26:18.606Z,13.97
2023-03-17T21:28:46.965Z,14.10
2023-03-17T21:31:16.190Z,14.13
2023-03-17T21:33:44.165Z,14.17
2023-03-17T21:36:11.900Z,14.13
2023-03-17T21:38:40.192Z,13.92
2023-03-17T21:41:28.875Z,13.89
2023-03-17T21:43:58.146Z,14.07
2023-03-17T21:46:26.023Z,13.78
2023-03-17T21:48:57.521Z,13.90
2023-03-17T21:51:25.473Z,13.84
2023-03-17T21:53:54.149Z,13.75
2023-03-17T21:56:21.866Z,13.86
2023-03-17T21:58:50.145Z,13.66
2023-03-17T22:01:19.192Z,13.67
2023-03-17T22:03:47.281Z,13.56
2023-03-17T22:06:16.424Z,13.48
2023-03-17T22:08:45.926Z,13.27
2023-03-17T22:11:15.202Z,13.28
2023-03-17T22:13:43.570Z,13.28
2023-03-17T22:16:11.840Z,13.36
2023-03-17T22:18:39.804Z,13.09
2023-03-17T22:21:08.491Z,13.11
2023-03-17T22:23:41.504Z,13.17
2023-03-17T22:26:13.446Z,13.11
2023-03-17T22:28:41.823Z,13.04
2023-03-17T22:31:20.468Z,13.00
2023-03-17T22:33:49.234Z,13.10
2023-03-17T22:36:17.315Z,13.19
2023-03-17T22:38:46.187Z,13.27
2023-03-17T22:41:15.193Z,13.31
2023-03-17T22:43:43.228Z,13.08
2023-03-17T22:46:11.331Z,13.07
2023-03-17T22:48:40.488Z,12.81
2023-03-17T22:51:09.824Z,12.82
2023-03-17T22:53:38.568Z,13.12
2023-03-17T22:56:06.952Z,12.92
2023-03-17T22:58:35.105Z,12.72
2023-03-17T23:01:03.796Z,12.91
2023-03-17T23:03:32.143Z,12.99
2023-03-17T23:06:00.440Z,12.72
2023-03-17T23:08:35.286Z,12.78
2023-03-17T23:11:04.878Z,12.72
2023-03-17T23:13:32.868Z,12.67
2023-03-17T23:16:00.465Z,12.69
2023-03-17T23:18:28.977Z,12.54
2023-03-17T23:20:56.764Z,12.75
2023-03-17T23:23:24.756Z,12.55
2023-03-17T23:25:52.839Z,12.73
2023-03-17T23:28:21.130Z,12.78
2023-03-17T23:30:48.782Z,12.62
2023-03-17T23:33:17.725Z,12.58
2023-03-17T23:35:46.486Z,12.16
2023-03-17T23:38:14.698Z,12.10
2023-03-17T23:40:42.515Z,12.16
2023-03-17T23:43:10.448Z,12.29
2023-03-17T23:45:39.082Z,12.16
2023-03-17T23:48:08.053Z,12.39
2023-03-17T23:50:36.554Z,12.12
2023-03-17T23:53:04.481Z,12.25
2023-03-17T23:55:32.062Z,12.10
2023-03-17T23:58:01.738Z,11.95
